createdAt,value
2022-11-29T00:01:04.563Z,95057.34
2022-11-29T00:04:47.241Z,95047.09
2022-11-29T00:08:30.564Z,95038.63
2022-11-29T00:12:13.333Z,95046.66
2022-11-29T00:15:57.387Z,95033.59
2022-11-29T00:19:40.398Z,95041.78
2022-11-29T00:23:23.232Z,95040.19
2022-11-29T00:27:06.049Z,95042.16
2022-11-29T00:30:48.698Z,95031.72
2022-11-29T00:34:33.091Z,95035.69
2022-11-29T00:38:15.814Z,95039.63
2022-11-29T00:41:59.729Z,95034.41
2022-11-29T00:45:42.481Z,95026.56
2022-11-29T00:49:25.285Z,95028.81
2022-11-29T00:53:09.388Z,95025.25
2022-11-29T00:56:52.373Z,95024.25
2022-11-29T01:00:35.096Z,95040.09
2022-11-29T01:04:18.068Z,95028.19
2022-11-29T01:08:00.812Z,95029.56
2022-11-29T01:11:44.842Z,95026.31
2022-11-29T01:15:27.748Z,95027.31
2022-11-29T01:19:10.700Z,95033.53
2022-11-29T01:22:53.382Z,95026.31
2022-11-29T01:26:36.074Z,95032.53
2022-11-29T01:30:20.402Z,95037.56
2022-11-29T01:34:04.596Z,95028.69
2022-11-29T01:37:47.380Z,95021.84
2022-11-29T01:41:31.698Z,95036.16
2022-11-29T01:45:23.640Z,95025.69
2022-11-29T01:49:09.930Z,95028.31
2022-11-29T01:52:53.005Z,95028.31
2022-11-29T01:56:36.016Z,95023.09
2022-11-29T02:00:20.215Z,95031.53
2022-11-29T02:04:04.988Z,95026.31
2022-11-29T02:07:52.943Z,95033.97
2022-11-29T02:12:04.481Z,95033.53
2022-11-29T02:15:51.527Z,95018.22
2022-11-29T02:19:54.865Z,95019.47
2022-11-29T02:24:07.143Z,95021.47
2022-11-29T02:28:31.367Z,95018.84
2022-11-29T02:32:51.177Z,95029.13
2022-11-29T02:36:52.948Z,95013.75
2022-11-29T02:40:55.126Z,95024.81
2022-11-29T02:44:51.112Z,95027.06
2022-11-29T02:48:53.987Z,95028.88
2022-11-29T02:52:46.414Z,95023.38
2022-11-29T02:56:35.308Z,95024.13
2022-11-29T03:00:20.714Z,95022.94
2022-11-29T03:04:09.582Z,95027.78
2022-11-29T03:07:57.155Z,95036.25
2022-11-29T03:11:48.190Z,95033.66
2022-11-29T03:15:34.413Z,95037.06
2022-11-29T03:19:31.192Z,95045.72
2022-11-29T03:23:23.748Z,95047.13
2022-11-29T03:27:10.715Z,95049.56
2022-11-29T03:31:00.362Z,95046.34
2022-11-29T03:34:57.541Z,95042.09
2022-11-29T03:38:46.795Z,95039.50
2022-11-29T03:42:34.640Z,95050.19
2022-11-29T03:46:22.674Z,95055.41
2022-11-29T03:50:07.757Z,95054.78
2022-11-29T03:53:56.664Z,95055.16
2022-11-29T03:57:45.188Z,95048.50
2022-11-29T04:01:44.711Z,95052.66
2022-11-29T04:05:40.446Z,95048.25
2022-11-29T04:09:43.725Z,95042.22
2022-11-29T04:13:41.245Z,95043.81
2022-11-29T04:17:56.720Z,95036.25
2022-11-29T04:22:01.851Z,95037.50
2022-11-29T04:26:13.159Z,95047.94
2022-11-29T04:30:15.452Z,95039.31
2022-11-29T04:34:14.547Z,95039.50
2022-11-29T04:38:10.988Z,95044.34
2022-11-29T04:42:23.722Z,95043.97
2022-11-29T04:46:26.860Z,95039.38
2022-11-29T04:50:28.327Z,95048.84
2022-11-29T04:54:17.236Z,95049.47
2022-11-29T04:58:06.498Z,95041.63
2022-11-29T05:01:59.667Z,95055.69
2022-11-29T05:05:45.355Z,95052.63
2022-11-29T05:09:37.294Z,95059.66
2022-11-29T05:13:28.808Z,95056.41
2022-11-29T05:17:31.749Z,95057.59
2022-11-29T05:21:23.754Z,95059.13
2022-11-29T05:25:30.960Z,95065.53
2022-11-29T05:29:22.135Z,95064.47
2022-11-29T05:33:14.835Z,95063.47
2022-11-29T05:37:04.089Z,95065.25
2022-11-29T05:40:54.862Z,95068.69
2022-11-29T05:44:43.344Z,95078.31
2022-11-29T05:48:29.836Z,95080.56
2022-11-29T05:52:27.300Z,95081.19
2022-11-29T05:56:14.132Z,95081.63
2022-11-29T05:59:58.960Z,95083.25
2022-11-29T06:03:46.309Z,95077.84
2022-11-29T06:07:34.196Z,95085.59
2022-11-29T06:11:19.218Z,95080.38
2022-11-29T06:15:35.142Z,95088.84
2022-11-29T06:19:47.544Z,95088.84
2022-11-29T06:23:42.750Z,95091.81
2022-11-29T06:27:39.520Z,95088.84
2022-11-29T06:31:26.669Z,95090.47
2022-11-29T06:35:13.519Z,95090.47
2022-11-29T06:38:56.743Z,95112.16
2022-11-29T06:42:39.573Z,95110.09
2022-11-29T06:46:30.375Z,95101.63
2022-11-29T06:50:33.001Z,95099.38
2022-11-29T06:54:24.905Z,95106.22
2022-11-29T06:58:12.294Z,95105.22
2022-11-29T07:02:02.188Z,95107.56
2022-11-29T07:05:46.529Z,95104.34
2022-11-29T07:09:33.331Z,95110.72
2022-11-29T07:13:16.805Z,95111.91
2022-11-29T07:17:07.744Z,95106.75
2022-11-29T07:21:00.157Z,95114.25
2022-11-29T07:24:54.220Z,95119.34
2022-11-29T07:28:47.142Z,95125.72
2022-11-29T07:32:38.811Z,95120.88
2022-11-29T07:36:27.167Z,95121.19
2022-11-29T07:40:18.126Z,95119.94
2022-11-29T07:44:06.538Z,95123.19
2022-11-29T07:47:51.509Z,95124.34
2022-11-29T07:51:34.266Z,95126.41
2022-11-29T07:55:19.256Z,95127.50
2022-11-29T07:59:04.985Z,95128.63
2022-11-29T08:02:50.352Z,95125.97
2022-11-29T08:06:33.098Z,95131.47
2022-11-29T08:10:16.947Z,95130.09
2022-11-29T08:14:00.498Z,95136.72
2022-11-29T08:17:43.209Z,95138.19
2022-11-29T08:21:27.453Z,95147.34
2022-11-29T08:25:11.084Z,95151.69
2022-11-29T08:28:54.324Z,95139.44
2022-11-29T08:32:37.053Z,95146.28
2022-11-29T08:36:21.117Z,95152.41
2022-11-29T08:40:05.814Z,95144.84
2022-11-29T08:43:50.218Z,95146.81
2022-11-29T08:47:38.821Z,95152.03
2022-11-29T08:51:21.543Z,95148.44
2022-11-29T08:55:06.129Z,95147.19
2022-11-29T08:58:48.887Z,95149.88
2022-11-29T09:02:31.600Z,95151.50
2022-11-29T09:06:15.970Z,95161.22
2022-11-29T09:09:58.618Z,95162.66
2022-11-29T09:13:43.736Z,95165.38
2022-11-29T09:17:26.542Z,95164.31
2022-11-29T09:21:10.449Z,95172.41
2022-11-29T09:24:53.231Z,95178.06
2022-11-29T09:28:35.940Z,95172.66
2022-11-29T09:32:20.097Z,95174.56
2022-11-29T09:36:03.748Z,95166.16
2022-11-29T09:39:46.450Z,95175.06
2022-11-29T09:43:33.996Z,95174.72
2022-11-29T09:47:31.214Z,95177.94
2022-11-29T09:51:19.371Z,95176.94
2022-11-29T09:55:06.774Z,95181.19
2022-11-29T09:58:51.582Z,95177.22
2022-11-29T10:02:39.686Z,95173.41
2022-11-29T10:06:25.930Z,95176.66
2022-11-29T10:10:12.535Z,95174.84
2022-11-29T10:13:58.966Z,95189.72
2022-11-29T10:17:46.294Z,95176.47
2022-11-29T10:21:31.710Z,95171.69
2022-11-29T10:25:20.624Z,95181.41
2022-11-29T10:29:03.585Z,95176.66
2022-11-29T10:32:52.075Z,95175.66
2022-11-29T10:36:42.641Z,95167.44
2022-11-29T10:40:30.985Z,95164.28
2022-11-29T10:44:15.468Z,95163.47
2022-11-29T10:48:03.997Z,95168.31
2022-11-29T10:51:47.211Z,95169.94
2022-11-29T10:55:32.842Z,95167.94
2022-11-29T10:59:22.312Z,95166.38
2022-11-29T11:03:17.637Z,95173.69
2022-11-29T11:07:02.308Z,95167.69
2022-11-29T11:10:58.626Z,95176.59
2022-11-29T11:14:46.900Z,95174.41
2022-11-29T11:18:32.016Z,95169.13
2022-11-29T11:22:21.482Z,95172.19
2022-11-29T11:26:06.814Z,95169.00
2022-11-29T11:29:53.234Z,95174.28
2022-11-29T11:33:41.291Z,95179.16
2022-11-29T11:37:26.103Z,95176.63
2022-11-29T11:41:18.542Z,95178.84
2022-11-29T11:45:01.937Z,95176.53
2022-11-29T11:48:46.718Z,95176.63
2022-11-29T11:52:34.736Z,95175.00
2022-11-29T11:56:19.880Z,95177.81
2022-11-29T12:00:06.905Z,95175.41
2022-11-29T12:03:56.320Z,95175.78
2022-11-29T12:08:09.161Z,95175.78
2022-11-29T12:11:55.217Z,95178.19
2022-11-29T12:15:39.765Z,95183.38
2022-11-29T12:19:27.701Z,95180.78
2022-11-29T12:23:25.310Z,95187.38
2022-11-29T12:27:11.874Z,95184.56
2022-11-29T12:31:00.216Z,95186.63
2022-11-29T12:34:56.304Z,95186.44
2022-11-29T12:38:51.554Z,95192.34
2022-11-29T12:42:45.441Z,95194.19
2022-11-29T12:46:29.441Z,95188.34
2022-11-29T12:50:22.008Z,95193.81
2022-11-29T12:54:27.356Z,95186.97
2022-11-29T12:58:14.927Z,95194.34
2022-11-29T13:02:09.371Z,95198.28
2022-11-29T13:06:04.645Z,95203.09
2022-11-29T13:10:00.441Z,95193.44
2022-11-29T13:13:44.917Z,95201.09
2022-11-29T13:17:32.590Z,95208.06
2022-11-29T13:21:18.434Z,95210.44
2022-11-29T13:25:03.882Z,95209.81
2022-11-29T13:28:47.510Z,95206.22
2022-11-29T13:32:35.596Z,95204.22
2022-11-29T13:36:23.174Z,95204.03
2022-11-29T13:40:19.587Z,95216.50
2022-11-29T13:44:09.465Z,95212.25
2022-11-29T13:47:53.437Z,95217.84
2022-11-29T13:51:38.596Z,95229.47
2022-11-29T13:55:31.219Z,95227.88
2022-11-29T13:59:19.841Z,95225.00
2022-11-29T14:03:21.604Z,95231.03
2022-11-29T14:07:09.252Z,95213.72
2022-11-29T14:10:52.818Z,95211.66
2022-11-29T14:14:38.839Z,95227.31
2022-11-29T14:18:51.019Z,95226.84
2022-11-29T14:22:36.587Z,95224.81
2022-11-29T14:26:30.145Z,95231.59
2022-11-29T14:30:31.289Z,95234.31
2022-11-29T14:34:17.194Z,95240.28
2022-11-29T14:38:05.987Z,95243.72
2022-11-29T14:41:56.554Z,95238.22
2022-11-29T14:45:39.439Z,95235.16
2022-11-29T14:49:23.994Z,95242.00
2022-11-29T14:53:08.909Z,95248.56
2022-11-29T14:56:51.651Z,95252.81
2022-11-29T15:00:56.076Z,95251.38
2022-11-29T15:04:39.464Z,95242.72
2022-11-29T15:08:33.605Z,95252.38
2022-11-29T15:12:21.121Z,95263.56
2022-11-29T15:16:15.512Z,95259.94
2022-11-29T15:20:12.540Z,95257.06
2022-11-29T15:24:03.730Z,95262.03
2022-11-29T15:27:54.292Z,95260.16
2022-11-29T15:31:37.704Z,95270.94
2022-11-29T15:35:20.913Z,95272.47
2022-11-29T15:39:05.671Z,95273.66
2022-11-29T15:42:52.399Z,95282.66
2022-11-29T15:46:36.445Z,95287.06
2022-11-29T15:50:26.931Z,95284.78
2022-11-29T15:54:15.848Z,95290.84
2022-11-29T15:58:01.588Z,95297.03
2022-11-29T16:01:49.675Z,95304.41
2022-11-29T16:05:34.249Z,95300.34
2022-11-29T16:09:21.278Z,95310.34
2022-11-29T16:13:06.867Z,95304.50
2022-11-29T16:16:52.522Z,95306.13
2022-11-29T16:20:35.334Z,95296.72
2022-11-29T16:24:22.587Z,95293.97
2022-11-29T16:28:06.002Z,95311.78
2022-11-29T16:31:48.791Z,95313.38
2022-11-29T16:35:33.786Z,95311.41
2022-11-29T16:39:20.366Z,95311.78
2022-11-29T16:43:19.980Z,95309.34
2022-11-29T16:47:12.181Z,95301.69
2022-11-29T16:51:18.231Z,95306.09
2022-11-29T16:55:01.323Z,95305.28
2022-11-29T16:59:26.040Z,95311.84
2022-11-29T17:02:50.950Z,95322.09
2022-11-29T17:06:33.760Z,95321.28
2022-11-29T17:10:18.813Z,95322.91
2022-11-29T17:14:03.162Z,95320.84
2022-11-29T17:17:45.885Z,95328.03
2022-11-29T17:21:30.186Z,95331.16
2022-11-29T17:25:12.883Z,95334.94
2022-11-29T17:28:55.577Z,95326.97
2022-11-29T17:32:39.964Z,95337.75
2022-11-29T17:36:22.999Z,95348.53
2022-11-29T17:40:06.501Z,95332.38
2022-11-29T17:43:49.685Z,95340.28
2022-11-29T17:47:33.728Z,95339.81
2022-11-29T17:51:49.849Z,95347.63
2022-11-29T17:55:29.556Z,95359.41
2022-11-29T17:59:12.656Z,95356.63
2022-11-29T18:02:55.356Z,95368.22
2022-11-29T18:06:42.353Z,95363.50
2022-11-29T18:10:25.173Z,95369.25
2022-11-29T18:14:08.107Z,95361.06
2022-11-29T18:17:50.829Z,95371.03
2022-11-29T18:21:34.360Z,95375.16
2022-11-29T18:25:38.338Z,95372.88
2022-11-29T18:29:23.079Z,95382.31
2022-11-29T18:33:05.821Z,95380.53
2022-11-29T18:36:49.744Z,95384.94
2022-11-29T18:40:34.409Z,95384.28
2022-11-29T18:44:18.646Z,95378.59
2022-11-29T18:48:01.318Z,95384.63
2022-11-29T18:51:46.132Z,95400.94
2022-11-29T18:55:29.216Z,95396.34
2022-11-29T18:59:16.674Z,95389.50
2022-11-29T19:02:59.768Z,95392.13
2022-11-29T19:06:43.864Z,95391.13
2022-11-29T19:10:26.606Z,95381.34
2022-11-29T19:14:11.972Z,95386.56
2022-11-29T19:17:56.145Z,95394.38
2022-11-29T19:21:40.064Z,95402.38
2022-11-29T19:25:22.833Z,95399.94
2022-11-29T19:29:05.633Z,95399.59
2022-11-29T19:32:50.941Z,95404.47
2022-11-29T19:36:37.053Z,95403.19
2022-11-29T19:40:20.044Z,95400.59
2022-11-29T19:44:04.709Z,95405.16
2022-11-29T19:47:47.500Z,95413.16
2022-11-29T19:51:31.019Z,95402.25
2022-11-29T19:55:15.194Z,95416.75
2022-11-29T19:58:59.642Z,95408.75
2022-11-29T20:02:42.340Z,95407.44
2022-11-29T20:06:25.321Z,95408.06
2022-11-29T20:10:09.018Z,95410.03
2022-11-29T20:13:55.669Z,95422.44
2022-11-29T20:17:38.480Z,95419.19
2022-11-29T20:21:23.203Z,95414.94
2022-11-29T20:25:06.809Z,95416.75
2022-11-29T20:28:49.633Z,95426.69
2022-11-29T20:32:34.022Z,95421.81
2022-11-29T20:36:25.172Z,95431.44
2022-11-29T20:40:13.887Z,95433.25
2022-11-29T20:43:57.646Z,95434.69
2022-11-29T20:47:48.705Z,95444.84
2022-11-29T20:51:35.369Z,95445.94
2022-11-29T20:55:18.503Z,95441.19
2022-11-29T20:59:04.394Z,95449.16
2022-11-29T21:02:48.536Z,95455.03
2022-11-29T21:06:31.252Z,95445.06
2022-11-29T21:10:14.817Z,95449.91
2022-11-29T21:13:57.988Z,95448.88
2022-11-29T21:17:41.822Z,95448.88
2022-11-29T21:21:32.015Z,95448.41
2022-11-29T21:25:21.838Z,95441.44
2022-11-29T21:29:16.589Z,95447.03
2022-11-29T21:32:59.978Z,95438.44
2022-11-29T21:36:44.971Z,95437.31
2022-11-29T21:40:28.204Z,95445.53
2022-11-29T21:44:11.251Z,95440.34
2022-11-29T21:47:54.504Z,95444.63
2022-11-29T21:51:37.311Z,95452.13
2022-11-29T21:55:22.098Z,95454.44
2022-11-29T21:59:05.990Z,95456.56
2022-11-29T22:02:49.123Z,95459.00
2022-11-29T22:06:32.357Z,95453.47
2022-11-29T22:10:16.003Z,95453.63
2022-11-29T22:14:18.062Z,95454.44
2022-11-29T22:18:00.912Z,95452.50
2022-11-29T22:21:44.777Z,95457.25
2022-11-29T22:25:27.570Z,95459.88
2022-11-29T22:29:11.896Z,95448.00
2022-11-29T22:32:56.802Z,95454.50
2022-11-29T22:36:40.124Z,95449.63
2022-11-29T22:40:22.892Z,95461.03
2022-11-29T22:44:06.418Z,95449.16
2022-11-29T22:47:50.499Z,95452.25
2022-11-29T22:51:34.758Z,95446.06
2022-11-29T22:55:17.560Z,95456.16
2022-11-29T22:59:00.300Z,95449.97
2022-11-29T23:02:43.081Z,95454.84
2022-11-29T23:06:29.917Z,95455.66
2022-11-29T23:10:13.951Z,95458.09
2022-11-29T23:13:57.247Z,95462.31
2022-11-29T23:17:42.792Z,95451.59
2022-11-29T23:21:31.860Z,95450.94
2022-11-29T23:25:14.796Z,95451.91
2022-11-29T23:28:57.898Z,95456.63
2022-11-29T23:32:46.649Z,95454.19
2022-11-29T23:36:30.940Z,95449.28
2022-11-29T23:40:17.712Z,95454.50
2022-11-29T23:44:00.823Z,95463.94
2022-11-29T23:47:46.576Z,95455.09
2022-11-29T23:51:31.180Z,95467.16
2022-11-29T23:55:14.514Z,95458.34
2022-11-29T23:58:57.425Z,95453.13
